KGAF

Hutson Field Airport

Grafton, North Dakota, USA
METAR KGAF 181115Z AUTO 18008KT 10SM CLR M00/M00 A3008 RMK AO2 PWINO
Observed Flight Rules
Oct-18 @ 11:15 UTC (14 minutes ago) Visual Flight Rules
Wind Visibility Clouds
180° at 8 knots 10 miles
  • Clear skies
Temperatures Readings
Current 0°C / 32°F
Dewpoint 0°C / 32°F
Humidity 100%
Altimeter 30.08" Hg
Pressure 1019 hPa
Elevation 252
METAR KGAF 181115Z AUTO 18008KT 10SM CLR M00/M00 A3008 RMK AO2 PWINO
Observed Flight Rules
Oct-18 @ 11:15 UTC
(14 minutes ago)
VFR
Wind Visibility
180° at 8 knots 10 miles
Clouds
  • Clear skies
Temperature Dewpoint
0°C / 32°F 0°C / 32°F
Humidity Altimeter Pressure
100% 30.08" Hg 1019 hPa